createdAt,value
2019-04-30T00:02:34.393Z,99.90
2019-04-30T00:05:32.285Z,99.90
2019-04-30T00:08:39.107Z,99.90
2019-04-30T00:11:41.044Z,99.90
2019-04-30T00:14:44.880Z,99.90
2019-04-30T00:17:52.828Z,99.90
2019-04-30T00:20:55.182Z,99.90
2019-04-30T00:24:00.742Z,99.90
2019-04-30T00:27:04.992Z,99.90
2019-04-30T00:30:09.164Z,99.90
2019-04-30T00:33:15.209Z,99.90
2019-04-30T00:36:17.392Z,99.90
2019-04-30T00:39:20.796Z,99.90
2019-04-30T00:42:26.794Z,99.90
2019-04-30T00:45:30.160Z,99.90
2019-04-30T00:48:33.453Z,99.90
2019-04-30T00:51:36.856Z,99.90
2019-04-30T00:54:40.049Z,99.90
2019-04-30T00:57:44.106Z,99.90
2019-04-30T01:00:59.749Z,99.90
2019-04-30T01:04:09.061Z,99.90
2019-04-30T01:07:12.986Z,99.90
2019-04-30T01:10:19.630Z,99.90
2019-04-30T01:13:21.337Z,99.90
2019-04-30T01:16:30.158Z,99.90
2019-04-30T01:19:32.253Z,99.90
2019-04-30T01:22:34.613Z,99.90
2019-04-30T01:25:38.870Z,99.90
2019-04-30T01:28:42.433Z,99.90
2019-04-30T01:31:45.630Z,99.90
2019-04-30T01:34:53.799Z,99.90
2019-04-30T01:37:55.054Z,99.90
2019-04-30T01:40:59.592Z,99.90
2019-04-30T01:44:03.819Z,99.90
2019-04-30T01:47:08.977Z,99.90
2019-04-30T01:50:12.232Z,99.90
2019-04-30T01:53:15.473Z,99.90
2019-04-30T01:56:44.913Z,99.90
2019-04-30T02:00:09.655Z,99.90
2019-04-30T02:03:12.501Z,99.90
2019-04-30T02:06:15.820Z,99.90
2019-04-30T02:09:20.667Z,99.90
2019-04-30T02:12:24.148Z,99.90
2019-04-30T02:15:29.039Z,99.90
2019-04-30T02:18:32.288Z,99.90
2019-04-30T02:21:35.472Z,99.90
2019-04-30T02:24:38.716Z,99.90
2019-04-30T02:27:41.860Z,99.90
2019-04-30T02:30:44.910Z,99.90
2019-04-30T02:33:52.522Z,99.90
2019-04-30T02:37:02.973Z,99.90
2019-04-30T02:40:06.988Z,99.90
2019-04-30T02:43:10.804Z,99.90
2019-04-30T02:46:15.481Z,99.90
2019-04-30T02:49:20.318Z,99.90
2019-04-30T02:52:26.271Z,99.90
2019-04-30T02:55:42.054Z,99.90
2019-04-30T02:58:45.110Z,99.90
2019-04-30T03:01:50.125Z,99.90
2019-04-30T03:04:53.266Z,99.90
2019-04-30T03:07:56.333Z,99.90
2019-04-30T03:11:00.063Z,99.90
2019-04-30T03:14:03.842Z,99.90
2019-04-30T03:17:39.445Z,99.90
2019-04-30T03:20:49.756Z,99.90
2019-04-30T03:23:52.816Z,99.90
2019-04-30T03:26:56.101Z,99.90
2019-04-30T03:30:00.363Z,99.90
2019-04-30T03:33:03.610Z,99.90
2019-04-30T03:36:11.961Z,99.90
2019-04-30T03:39:12.835Z,99.90
2019-04-30T03:46:50.910Z,99.90
2019-04-30T03:49:54.103Z,99.90
2019-04-30T03:53:00.167Z,99.90
2019-04-30T03:56:03.329Z,99.90
2019-04-30T03:59:06.614Z,99.90
2019-04-30T04:02:23.893Z,99.90
2019-04-30T04:05:49.851Z,99.90
2019-04-30T04:09:00.033Z,99.90
2019-04-30T04:12:21.393Z,99.90
2019-04-30T04:15:24.482Z,99.90
2019-04-30T04:18:30.075Z,99.90
2019-04-30T04:21:32.568Z,99.90
2019-04-30T04:24:35.557Z,99.90
2019-04-30T04:27:39.305Z,99.90
2019-04-30T04:30:42.985Z,99.90
2019-04-30T04:33:46.212Z,99.90
2019-04-30T04:36:50.739Z,99.90
2019-04-30T04:39:54.202Z,99.90
2019-04-30T04:42:57.227Z,99.90
2019-04-30T04:46:00.283Z,99.90
2019-04-30T04:49:03.507Z,99.90
2019-04-30T04:52:06.581Z,99.90
2019-04-30T04:55:10.133Z,99.90
2019-04-30T04:58:13.495Z,99.90
2019-04-30T05:01:16.865Z,99.90
2019-04-30T05:04:20.168Z,99.90
2019-04-30T05:07:23.465Z,99.90
2019-04-30T05:10:29.207Z,99.90
2019-04-30T05:13:34.628Z,99.90
2019-04-30T05:16:38.905Z,99.90
2019-04-30T05:19:42.184Z,99.90
2019-04-30T05:22:45.385Z,99.90
2019-04-30T05:25:49.159Z,99.90
2019-04-30T05:28:54.327Z,99.90
2019-04-30T05:31:58.559Z,99.90
2019-04-30T05:35:02.094Z,99.90
2019-04-30T05:38:05.245Z,99.90
2019-04-30T05:41:09.334Z,99.90
2019-04-30T05:44:12.804Z,99.90
2019-04-30T05:47:15.960Z,99.90
2019-04-30T05:50:20.007Z,99.90
2019-04-30T05:53:23.164Z,99.90
2019-04-30T05:56:26.502Z,99.90
2019-04-30T05:59:29.800Z,99.90
2019-04-30T06:02:34.121Z,99.90
2019-04-30T06:05:43.461Z,99.90
2019-04-30T06:09:04.633Z,99.90
2019-04-30T06:12:22.821Z,99.90
2019-04-30T06:15:36.354Z,99.90
2019-04-30T06:18:42.168Z,99.90
2019-04-30T06:21:44.661Z,99.90
2019-04-30T06:24:49.468Z,99.90
2019-04-30T06:27:53.822Z,99.90
2019-04-30T06:30:59.024Z,99.90
2019-04-30T06:34:02.252Z,99.90
2019-04-30T06:37:05.363Z,99.90
2019-04-30T06:40:11.482Z,99.90
2019-04-30T06:43:13.901Z,99.90
2019-04-30T06:46:18.700Z,99.90
2019-04-30T06:49:24.430Z,99.90
2019-04-30T06:52:29.227Z,99.90
2019-04-30T06:55:32.549Z,99.90
2019-04-30T06:58:35.619Z,99.90
2019-04-30T07:01:38.929Z,99.90
2019-04-30T07:04:41.997Z,99.90
2019-04-30T07:08:09.053Z,99.90
2019-04-30T07:11:26.174Z,99.90
2019-04-30T07:14:29.469Z,99.90
2019-04-30T07:17:32.768Z,99.90
2019-04-30T07:20:36.065Z,99.90
2019-04-30T07:23:39.241Z,99.90
2019-04-30T07:26:42.398Z,99.90
2019-04-30T07:29:45.716Z,99.90
2019-04-30T07:32:48.983Z,99.90
2019-04-30T07:35:54.325Z,99.90
2019-04-30T07:38:59.970Z,99.90
2019-04-30T07:42:02.642Z,99.60
2019-04-30T07:45:05.935Z,96.00
2019-04-30T07:48:09.460Z,94.10
2019-04-30T07:51:12.987Z,94.40
2019-04-30T07:54:16.542Z,92.70
2019-04-30T07:57:19.737Z,90.40
2019-04-30T08:00:23.086Z,87.80
2019-04-30T08:03:51.914Z,86.80
2019-04-30T08:06:56.144Z,83.60
2019-04-30T08:09:59.345Z,84.50
2019-04-30T08:13:10.014Z,84.00
2019-04-30T08:16:09.660Z,82.80
2019-04-30T08:19:13.549Z,81.70
2019-04-30T08:22:19.449Z,79.00
2019-04-30T08:25:25.215Z,80.10
2019-04-30T08:28:30.393Z,78.40
2019-04-30T08:31:34.330Z,76.90
2019-04-30T08:34:39.385Z,75.20
2019-04-30T08:37:43.879Z,75.30
2019-04-30T08:40:56.075Z,73.90
2019-04-30T08:43:53.449Z,72.90
2019-04-30T08:46:59.043Z,73.10
2019-04-30T08:50:03.018Z,73.00
2019-04-30T08:53:06.550Z,72.30
2019-04-30T08:56:10.103Z,71.70
2019-04-30T08:59:13.336Z,71.10
2019-04-30T09:02:16.743Z,71.50
2019-04-30T09:05:28.155Z,70.30
2019-04-30T09:08:31.735Z,70.30
2019-04-30T09:11:49.011Z,69.60
2019-04-30T09:14:40.594Z,69.30
2019-04-30T09:17:44.086Z,66.60
2019-04-30T09:20:49.363Z,66.70
2019-04-30T09:23:52.909Z,66.40
2019-04-30T09:26:56.226Z,66.70
2019-04-30T09:29:59.287Z,65.60
2019-04-30T09:33:02.581Z,67.00
2019-04-30T09:36:05.709Z,68.10
2019-04-30T09:39:09.069Z,66.10
2019-04-30T09:42:12.677Z,63.70
2019-04-30T09:45:15.778Z,64.00
2019-04-30T09:48:19.267Z,63.80
2019-04-30T09:51:24.717Z,63.50
2019-04-30T09:55:05.113Z,62.30
2019-04-30T09:58:16.206Z,60.30
2019-04-30T10:01:13.453Z,60.70
2019-04-30T10:04:17.116Z,61.00
2019-04-30T10:07:21.913Z,59.50
2019-04-30T10:10:30.437Z,58.90
2019-04-30T10:13:34.525Z,60.40
2019-04-30T10:16:59.637Z,59.50
2019-04-30T10:20:03.136Z,58.80
2019-04-30T10:23:06.309Z,59.10
2019-04-30T10:26:09.546Z,58.60
2019-04-30T10:29:12.811Z,59.70
2019-04-30T10:32:16.133Z,57.90
2019-04-30T10:35:20.372Z,56.50
2019-04-30T10:38:23.918Z,56.80
2019-04-30T10:41:28.743Z,56.30
2019-04-30T10:44:32.153Z,56.40
2019-04-30T10:47:35.381Z,55.70
2019-04-30T10:50:41.309Z,57.50
2019-04-30T10:53:44.604Z,58.00
2019-04-30T10:56:51.343Z,55.70
2019-04-30T10:59:54.374Z,56.60
2019-04-30T11:02:59.247Z,56.60
2019-04-30T11:06:02.506Z,56.30
2019-04-30T11:09:07.336Z,54.60
2019-04-30T11:12:10.565Z,55.30
2019-04-30T11:15:14.035Z,54.40
2019-04-30T11:18:17.315Z,53.60
2019-04-30T11:21:20.829Z,55.40
2019-04-30T11:24:35.911Z,54.10
2019-04-30T11:27:30.587Z,54.60
2019-04-30T11:30:34.553Z,53.50
2019-04-30T11:33:37.972Z,55.40
2019-04-30T11:36:41.318Z,53.40
2019-04-30T11:39:44.821Z,54.10
2019-04-30T11:42:48.054Z,54.90
2019-04-30T11:46:39.340Z,54.00
2019-04-30T11:49:42.448Z,54.90
2019-04-30T11:52:45.661Z,54.40
2019-04-30T11:55:49.152Z,52.10
2019-04-30T11:58:52.632Z,52.60
2019-04-30T12:01:57.524Z,52.10
2019-04-30T12:05:00.767Z,51.50
2019-04-30T12:08:15.417Z,53.00
2019-04-30T12:11:26.550Z,51.30
2019-04-30T12:14:29.809Z,52.00
2019-04-30T12:17:32.894Z,51.60
2019-04-30T12:20:35.994Z,50.80
2019-04-30T12:23:39.080Z,50.70
2019-04-30T12:26:43.273Z,50.00
2019-04-30T12:29:46.397Z,50.60
2019-04-30T12:32:49.528Z,51.50
2019-04-30T12:35:52.680Z,51.00
2019-04-30T12:38:55.881Z,49.60
2019-04-30T12:42:01.977Z,48.60
2019-04-30T12:45:04.706Z,50.50
2019-04-30T12:48:13.277Z,48.90
2019-04-30T12:51:45.606Z,49.50
2019-04-30T12:55:15.271Z,49.90
2019-04-30T12:58:13.001Z,49.50
2019-04-30T13:01:16.396Z,49.90
2019-04-30T13:04:19.606Z,51.20
2019-04-30T13:07:23.313Z,50.10
2019-04-30T13:10:27.455Z,50.20
2019-04-30T13:13:32.225Z,48.20
2019-04-30T13:16:36.794Z,48.70
2019-04-30T13:19:39.883Z,48.10
2019-04-30T13:22:44.394Z,47.80
2019-04-30T13:25:51.394Z,47.00
2019-04-30T13:28:59.762Z,47.90
2019-04-30T13:32:02.909Z,50.30
2019-04-30T13:35:06.216Z,50.20
2019-04-30T13:38:20.313Z,51.50
2019-04-30T13:41:38.684Z,52.80
2019-04-30T13:44:41.892Z,52.90
2019-04-30T13:47:46.215Z,54.40
2019-04-30T13:50:49.320Z,53.70
2019-04-30T13:53:53.675Z,53.50
2019-04-30T13:56:56.761Z,52.30
2019-04-30T13:59:59.953Z,53.20
2019-04-30T14:03:10.040Z,52.40
2019-04-30T14:06:15.537Z,52.40
2019-04-30T14:09:24.172Z,50.60
2019-04-30T14:12:28.201Z,49.10
2019-04-30T14:15:31.359Z,48.80
2019-04-30T14:18:35.025Z,48.20
2019-04-30T14:21:39.633Z,47.10
2019-04-30T14:24:42.925Z,47.80
2019-04-30T14:27:51.756Z,48.70
2019-04-30T14:30:51.160Z,48.30
2019-04-30T14:33:54.213Z,46.70
2019-04-30T14:36:59.374Z,47.00
2019-04-30T14:40:03.352Z,46.30
2019-04-30T14:43:32.695Z,44.40
2019-04-30T14:46:45.785Z,45.40
2019-04-30T14:50:09.745Z,45.00
2019-04-30T14:53:43.771Z,44.30
2019-04-30T14:56:55.745Z,46.00
2019-04-30T15:00:32.014Z,47.60
2019-04-30T15:03:35.641Z,48.80
2019-04-30T15:06:38.673Z,47.20
2019-04-30T15:09:41.801Z,47.00
2019-04-30T15:12:44.994Z,46.80
2019-04-30T15:15:49.148Z,46.80
2019-04-30T15:18:52.572Z,47.20
2019-04-30T15:21:55.708Z,45.40
2019-04-30T15:24:59.244Z,42.90
2019-04-30T15:28:02.605Z,43.00
2019-04-30T15:31:05.797Z,42.70
2019-04-30T15:34:11.096Z,42.30
2019-04-30T15:37:21.647Z,41.70
2019-04-30T15:40:19.354Z,40.20
2019-04-30T15:43:22.641Z,39.10
2019-04-30T15:46:25.887Z,40.20
2019-04-30T15:49:29.035Z,40.90
2019-04-30T15:52:32.170Z,41.70
2019-04-30T15:55:35.222Z,41.80
2019-04-30T15:58:40.453Z,41.40
2019-04-30T16:01:46.573Z,42.20
2019-04-30T16:05:11.849Z,41.80
2019-04-30T16:08:42.294Z,42.20
2019-04-30T16:11:54.776Z,43.30
2019-04-30T16:14:58.012Z,44.20
2019-04-30T16:18:02.214Z,44.00
2019-04-30T16:21:06.454Z,44.40
2019-04-30T16:24:09.721Z,45.30
2019-04-30T16:27:13.170Z,44.10
2019-04-30T16:30:16.787Z,44.50
2019-04-30T16:33:20.069Z,45.00
2019-04-30T16:36:23.322Z,46.40
2019-04-30T16:39:28.640Z,46.10
2019-04-30T16:42:31.797Z,46.90
2019-04-30T16:45:35.156Z,48.00
2019-04-30T16:48:38.903Z,48.20
2019-04-30T16:51:42.165Z,48.20
2019-04-30T16:54:45.389Z,48.50
2019-04-30T16:57:50.642Z,49.80
2019-04-30T17:00:53.901Z,48.70
2019-04-30T17:04:02.630Z,47.90
2019-04-30T17:07:22.300Z,48.30
2019-04-30T17:10:33.285Z,48.60
2019-04-30T17:14:01.641Z,49.00
2019-04-30T17:17:05.614Z,48.30
2019-04-30T17:20:09.389Z,48.60
2019-04-30T17:23:12.595Z,48.70
2019-04-30T17:26:15.826Z,49.00
2019-04-30T17:29:19.480Z,49.00
2019-04-30T17:32:22.780Z,49.40
2019-04-30T17:35:26.023Z,49.30
2019-04-30T17:38:29.294Z,48.40
2019-04-30T17:41:32.613Z,49.00
2019-04-30T17:44:35.669Z,49.50
2019-04-30T17:47:38.962Z,49.80
2019-04-30T17:50:42.197Z,52.20
2019-04-30T17:54:03.249Z,52.30
2019-04-30T17:57:06.372Z,53.40
2019-04-30T18:00:18.787Z,54.40
2019-04-30T18:03:16.245Z,55.40
2019-04-30T18:06:19.586Z,57.30
2019-04-30T18:09:23.247Z,57.90
2019-04-30T18:12:26.449Z,60.30
2019-04-30T18:15:30.556Z,59.70
2019-04-30T18:18:43.808Z,61.30
2019-04-30T18:21:53.638Z,62.20
2019-04-30T18:25:21.861Z,66.90
2019-04-30T18:28:25.621Z,64.40
2019-04-30T18:31:29.834Z,65.90
2019-04-30T18:34:33.045Z,66.20
2019-04-30T18:37:36.160Z,68.90
2019-04-30T18:40:40.403Z,69.70
2019-04-30T18:43:45.220Z,70.80
2019-04-30T18:46:49.078Z,76.10
2019-04-30T18:49:52.293Z,77.50
2019-04-30T18:52:58.726Z,74.20
2019-04-30T18:56:01.866Z,75.00
2019-04-30T18:59:05.410Z,74.60
2019-04-30T19:02:11.096Z,76.40
2019-04-30T19:05:22.976Z,78.00
2019-04-30T19:08:39.456Z,80.10
2019-04-30T19:11:51.857Z,80.60
2019-04-30T19:15:17.036Z,82.00
2019-04-30T19:18:27.582Z,86.80
2019-04-30T19:21:30.811Z,88.00
2019-04-30T19:24:34.021Z,85.60
2019-04-30T19:27:37.101Z,85.20
2019-04-30T19:30:40.408Z,84.70
2019-04-30T19:33:43.485Z,85.50
2019-04-30T19:36:46.821Z,86.10
2019-04-30T19:39:51.176Z,89.20
2019-04-30T19:42:54.405Z,90.30
2019-04-30T19:45:59.221Z,91.30
2019-04-30T19:49:02.632Z,91.00
2019-04-30T19:52:08.912Z,91.10
2019-04-30T19:55:11.105Z,92.20
2019-04-30T19:58:25.255Z,93.20
2019-04-30T20:01:19.559Z,93.70
2019-04-30T20:04:32.619Z,93.50
2019-04-30T20:07:29.096Z,92.40
2019-04-30T20:10:32.517Z,93.50
2019-04-30T20:13:37.264Z,93.00
2019-04-30T20:16:40.754Z,93.20
2019-04-30T20:19:43.809Z,92.90
2019-04-30T20:22:51.937Z,92.00
2019-04-30T20:25:54.742Z,93.30
2019-04-30T20:28:59.008Z,94.20
2019-04-30T20:32:02.478Z,95.70
2019-04-30T20:35:06.031Z,99.90
2019-04-30T20:38:34.778Z,99.90
2019-04-30T20:41:39.593Z,99.90
2019-04-30T20:44:42.857Z,99.90
2019-04-30T20:47:47.227Z,99.90
2019-04-30T20:51:01.430Z,99.90
2019-04-30T20:54:04.825Z,99.90
2019-04-30T20:57:08.701Z,99.90
2019-04-30T21:00:14.017Z,99.90
2019-04-30T21:03:19.495Z,99.90
2019-04-30T21:06:22.354Z,99.90
2019-04-30T21:09:25.427Z,99.90
2019-04-30T21:12:28.852Z,99.90
2019-04-30T21:15:32.018Z,99.90
2019-04-30T21:18:35.206Z,99.90
2019-04-30T21:21:38.775Z,99.90
2019-04-30T21:24:43.207Z,99.90
2019-04-30T21:27:46.373Z,99.90
2019-04-30T21:30:49.620Z,99.90
2019-04-30T21:33:58.242Z,99.90
2019-04-30T21:37:01.585Z,99.90
2019-04-30T21:40:05.775Z,99.90
2019-04-30T21:43:09.410Z,99.90
2019-04-30T21:46:12.765Z,99.90
2019-04-30T21:49:16.000Z,99.90
2019-04-30T21:52:19.293Z,99.90
2019-04-30T21:55:22.549Z,99.90
2019-04-30T21:58:25.749Z,99.90
2019-04-30T22:01:29.542Z,99.90
2019-04-30T22:04:43.304Z,99.90
2019-04-30T22:07:52.389Z,99.90
2019-04-30T22:10:55.630Z,99.90
2019-04-30T22:13:59.129Z,99.90
2019-04-30T22:17:02.460Z,99.90
2019-04-30T22:20:07.345Z,99.90
2019-04-30T22:23:10.357Z,99.90
2019-04-30T22:26:13.446Z,99.90
2019-04-30T22:29:19.166Z,99.90
2019-04-30T22:32:22.541Z,99.90
2019-04-30T22:35:53.785Z,99.90
2019-04-30T22:39:22.309Z,99.90
2019-04-30T22:42:31.180Z,99.90
2019-04-30T22:45:40.541Z,99.90
2019-04-30T22:48:44.940Z,99.90
2019-04-30T22:51:48.049Z,99.90
2019-04-30T22:54:51.376Z,99.90
2019-04-30T22:57:54.516Z,99.90
2019-04-30T23:01:18.065Z,99.90
2019-04-30T23:04:31.084Z,99.90
2019-04-30T23:07:34.217Z,99.90
2019-04-30T23:10:37.404Z,99.90
2019-04-30T23:13:40.500Z,99.90
2019-04-30T23:16:43.695Z,99.90
2019-04-30T23:19:49.507Z,99.90
2019-04-30T23:22:51.930Z,99.90
2019-04-30T23:25:55.028Z,99.90
2019-04-30T23:28:58.118Z,99.90
2019-04-30T23:32:01.076Z,99.90
2019-04-30T23:35:04.397Z,99.90
2019-04-30T23:38:07.593Z,99.90
2019-04-30T23:41:10.693Z,99.90
2019-04-30T23:44:13.884Z,99.90
2019-04-30T23:47:17.086Z,99.90
2019-04-30T23:50:20.181Z,99.90
2019-04-30T23:53:23.409Z,99.90
2019-04-30T23:56:26.561Z,99.90
2019-04-30T23:59:29.865Z,99.90
